METAR Data
IDs: Format: Raw Decoded Include TAF

Data at: 0142 UTC 14 May 2021

METAR for:EGNX (Nottingham/E Midland, EN, UK)
Text:EGNX 140120Z 03007KT 350V070 9999 BKN008 07/05 Q1010
Temperature: 7.0°C ( 45°F)
Dewpoint: 5.0°C ( 41°F) [RH = 87%]
Pressure (altimeter):29.82 inches Hg (1010.0 mb)
Winds:from the NNE (30 degrees) at 8 MPH (7 knots; 3.6 m/s)
Visibility:6 or more sm (10+ km)
Ceiling:800 feet AGL
Clouds: broken clouds at 800 feet AGL